Time;durP1;ratioP1;P1;durP2;ratioP2;P2;SDS_P1;SDS_P2;PMS_P1;PMS_P2;Temp;Humidity;BMP_temperature;BMP_pressure;BME280_temperature;BME280_humidity;BME280_pressure;Samples;Min_cycle;Max_cycle;Signal;HPM_P1;HPM_P2
2021/09/07 00:01:30;;;;;;;12.33;11.03;;;;;;;14.40;100.00;98842.00;5052811;28;20212;-65
2021/09/07 00:03:56;;;;;;;12.73;10.90;;;;;;;14.35;100.00;98852.16;5053090;28;20219;-65
2021/09/07 00:06:22;;;;;;;14.93;10.97;;;;;;;14.31;100.00;98845.34;5051156;28;20212;-65
2021/09/07 00:08:49;;;;;;;12.53;11.23;;;;;;;14.27;100.00;98843.88;5052982;28;20204;-65
2021/09/07 00:11:17;;;;;;;13.33;11.57;;;;;;;14.23;100.00;98842.41;5052592;28;20232;-65
2021/09/07 00:13:44;;;;;;;13.83;11.23;;;;;;;14.16;100.00;98843.75;5052585;28;20223;-65
2021/09/07 00:16:10;;;;;;;13.60;11.97;;;;;;;14.17;100.00;98837.50;5052801;28;20212;-65
2021/09/07 00:18:37;;;;;;;13.13;10.90;;;;;;;14.11;100.00;98843.25;5052550;28;20223;-65
2021/09/07 00:21:03;;;;;;;12.83;11.27;;;;;;;14.07;100.00;98837.31;5052367;28;20673;-65
2021/09/07 00:23:30;;;;;;;13.77;11.40;;;;;;;14.09;100.00;98843.38;5052661;28;20211;-65
2021/09/07 00:25:56;;;;;;;14.93;12.07;;;;;;;14.06;100.00;98837.44;5052670;28;20208;-65
2021/09/07 00:28:24;;;;;;;12.37;11.00;;;;;;;14.04;100.00;98836.66;5052371;28;20228;-65
2021/09/07 00:30:51;;;;;;;12.53;11.23;;;;;;;14.05;100.00;98844.53;5052065;28;20701;-65
2021/09/07 00:33:17;;;;;;;15.13;11.73;;;;;;;14.01;100.00;98839.56;5051063;28;20216;-66
2021/09/07 00:35:44;;;;;;;14.23;11.50;;;;;;;13.98;100.00;98837.09;5052461;28;20206;-66
2021/09/07 00:38:11;;;;;;;16.27;11.60;;;;;;;13.96;100.00;98839.03;5052625;28;20208;-65
2021/09/07 00:40:38;;;;;;;12.90;11.17;;;;;;;13.93;100.00;98836.59;5052523;28;20365;-66
2021/09/07 00:43:05;;;;;;;15.37;11.77;;;;;;;13.91;100.00;98830.53;5052387;28;20215;-65
2021/09/07 00:45:33;;;;;;;15.67;12.30;;;;;;;13.90;100.00;98839.47;5052669;28;20219;-65
2021/09/07 00:47:59;;;;;;;13.67;11.80;;;;;;;13.81;100.00;98838.31;5052519;28;20212;-65
2021/09/07 00:50:25;;;;;;;13.80;12.30;;;;;;;13.79;100.00;98831.41;5052502;28;20240;-65
2021/09/07 00:52:54;;;;;;;13.60;12.07;;;;;;;13.74;100.00;98833.56;5052371;28;20213;-65
2021/09/07 00:55:20;;;;;;;13.53;11.80;;;;;;;13.76;100.00;98836.94;5052538;28;20216;-65
2021/09/07 00:57:49;;;;;;;14.90;12.73;;;;;;;13.74;100.00;98833.56;5052624;28;20212;-65
2021/09/07 01:00:17;;;;;;;13.70;11.87;;;;;;;13.68;100.00;98839.31;5049601;28;20713;-65
2021/09/07 01:02:45;;;;;;;14.23;12.60;;;;;;;13.62;100.00;98834.44;5032715;28;20622;-65
2021/09/07 01:05:12;;;;;;;13.93;12.43;;;;;;;13.66;100.00;98825.25;5032979;28;20217;-65
2021/09/07 01:07:39;;;;;;;13.87;12.30;;;;;;;13.70;100.00;98832.06;5035704;28;20693;-65
2021/09/07 01:10:08;;;;;;;15.77;12.27;;;;;;;13.71;100.00;98825.78;5035537;28;20222;-65
2021/09/07 01:12:35;;;;;;;14.00;11.77;;;;;;;13.67;100.00;98824.31;5035632;28;20236;-65
2021/09/07 01:15:02;;;;;;;15.00;12.27;;;;;;;13.70;100.00;98824.09;5035996;28;20208;-65
2021/09/07 01:17:28;;;;;;;15.83;11.90;;;;;;;13.70;100.00;98837.38;5035525;28;20255;-65
2021/09/07 01:19:56;;;;;;;16.10;12.30;;;;;;;13.72;100.00;98835.47;5035778;28;20556;-65
2021/09/07 01:22:23;;;;;;;13.73;11.90;;;;;;;13.70;100.00;98826.75;5035628;28;20569;-65
2021/09/07 01:24:52;;;;;;;17.40;12.83;;;;;;;13.69;100.00;98820.59;5033883;28;20216;-65
2021/09/07 01:27:20;;;;;;;15.13;12.07;;;;;;;13.68;100.00;98826.03;5035317;28;20220;-65
2021/09/07 01:29:48;;;;;;;14.33;11.77;;;;;;;13.61;100.00;98822.06;5038702;28;20544;-65
2021/09/07 01:32:15;;;;;;;13.43;11.90;;;;;;;13.53;100.00;98824.44;5055081;28;20710;-65
2021/09/07 01:34:41;;;;;;;14.60;11.90;;;;;;;13.54;100.00;98826.13;5055393;28;20579;-65
2021/09/07 01:37:09;;;;;;;15.80;11.67;;;;;;;13.54;100.00;98821.69;5055116;28;20689;-65
2021/09/07 01:39:36;;;;;;;14.67;12.63;;;;;;;13.51;100.00;98832.50;5055357;28;20689;-66
2021/09/07 01:42:05;;;;;;;15.00;11.93;;;;;;;13.47;100.00;98830.16;5055403;28;20631;-65
2021/09/07 01:44:32;;;;;;;14.47;12.40;;;;;;;13.47;100.00;98824.88;5055174;28;20215;-65
2021/09/07 01:46:59;;;;;;;14.53;12.57;;;;;;;13.43;100.00;98823.38;5055094;28;20216;-65
2021/09/07 01:49:25;;;;;;;16.83;12.83;;;;;;;13.40;100.00;98823.59;5055101;28;20212;-65
2021/09/07 01:51:52;;;;;;;15.13;12.13;;;;;;;13.42;100.00;98822.53;5053324;28;20239;-65
2021/09/07 01:54:19;;;;;;;16.17;12.77;;;;;;;13.37;100.00;98826.44;5055004;28;20209;-65
2021/09/07 01:56:45;;;;;;;17.67;13.23;;;;;;;13.39;100.00;98830.69;5054986;28;20286;-65
2021/09/07 01:59:13;;;;;;;14.90;12.03;;;;;;;13.45;100.00;98826.78;5054842;28;20216;-65
2021/09/07 02:01:40;;;;;;;16.77;12.63;;;;;;;13.43;100.00;98832.19;5054889;28;20205;-65
2021/09/07 02:04:06;;;;;;;15.80;12.93;;;;;;;13.37;100.00;98815.81;5054974;28;20237;-65
2021/09/07 02:06:32;;;;;;;14.53;11.33;;;;;;;13.35;100.00;98821.25;5054918;28;20588;-65
2021/09/07 02:08:59;;;;;;;14.77;11.77;;;;;;;13.37;100.00;98818.47;5054814;28;20219;-65
2021/09/07 02:11:25;;;;;;;14.57;12.03;;;;;;;13.38;100.00;98820.22;5054732;28;20239;-65
2021/09/07 02:13:52;;;;;;;15.27;12.70;;;;;;;13.36;100.00;98822.09;5054745;28;20208;-65
2021/09/07 02:16:20;;;;;;;13.30;11.90;;;;;;;13.41;100.00;98820.84;5052778;28;20212;-66
2021/09/07 02:18:46;;;;;;;13.80;11.20;;;;;;;13.42;100.00;98813.69;5054358;28;20688;-65
2021/09/07 02:21:13;;;;;;;14.93;11.73;;;;;;;13.38;100.00;98814.91;5054301;28;20212;-65
2021/09/07 02:23:39;;;;;;;14.13;11.20;;;;;;;13.35;100.00;98815.97;5054479;28;20583;-65
2021/09/07 02:26:05;;;;;;;15.00;11.03;;;;;;;13.30;100.00;98822.53;5054466;28;20210;-65
2021/09/07 02:28:32;;;;;;;12.97;11.57;;;;;;;13.26;100.00;98823.72;5054199;28;20215;-65
2021/09/07 02:30:58;;;;;;;11.83;10.50;;;;;;;13.22;100.00;98830.19;5053950;28;20684;-65
2021/09/07 02:33:26;;;;;;;13.83;11.33;;;;;;;13.18;100.00;98828.66;5054262;28;20587;-65
2021/09/07 02:35:53;;;;;;;14.13;12.37;;;;;;;13.14;100.00;98827.22;5054207;28;20215;-65
2021/09/07 02:38:19;;;;;;;17.40;12.80;;;;;;;13.08;100.00;98824.97;5054206;28;20211;-65
2021/09/07 02:40:46;;;;;;;15.67;13.30;;;;;;;12.95;100.00;98834.69;5053901;28;20242;-65
2021/09/07 02:43:12;;;;;;;15.80;13.17;;;;;;;12.86;100.00;98833.50;5052425;28;20238;-65
2021/09/07 02:45:39;;;;;;;14.53;12.53;;;;;;;12.79;100.00;98831.34;5053809;28;20215;-65
2021/09/07 02:48:06;;;;;;;13.33;11.93;;;;;;;12.79;100.00;98824.25;5053863;28;20677;-65
2021/09/07 02:50:33;;;;;;;14.87;12.77;;;;;;;12.75;100.00;98827.19;5054102;28;20214;-65
2021/09/07 02:53:00;;;;;;;15.20;12.67;;;;;;;12.69;100.00;98830.25;5053933;28;20603;-65
2021/09/07 02:55:26;;;;;;;16.07;13.07;;;;;;;12.66;100.00;98819.88;5053651;28;20215;-65
2021/09/07 02:57:53;;;;;;;16.50;13.33;;;;;;;12.63;100.00;98820.06;5053983;28;20588;-65
2021/09/07 03:00:19;;;;;;;16.33;13.63;;;;;;;12.63;100.00;98825.38;5053803;28;20586;-65
2021/09/07 03:02:46;;;;;;;16.70;13.37;;;;;;;12.63;100.00;98818.28;5053802;28;20218;-65
2021/09/07 03:05:13;;;;;;;14.87;12.30;;;;;;;12.60;100.00;98821.09;5053547;28;20225;-65
2021/09/07 03:07:40;;;;;;;15.07;13.30;;;;;;;12.60;100.00;98817.63;5053783;28;20212;-65
2021/09/07 03:10:07;;;;;;;16.17;13.60;;;;;;;12.58;100.00;98822.16;5051957;28;20210;-65
2021/09/07 03:12:34;;;;;;;15.10;13.23;;;;;;;12.55;100.00;98817.06;5053425;28;20242;-65
2021/09/07 03:15:00;;;;;;;16.53;13.23;;;;;;;12.51;100.00;98804.97;5053440;28;20589;-65
2021/09/07 03:17:27;;;;;;;16.53;13.40;;;;;;;12.51;100.00;98805.81;5053500;28;20215;-65
2021/09/07 03:19:53;;;;;;;15.40;12.40;;;;;;;12.53;100.00;98803.91;5053242;28;20590;-64
2021/09/07 03:22:20;;;;;;;14.60;13.07;;;;;;;12.54;100.00;98810.06;5053221;28;20220;-64
2021/09/07 03:24:48;;;;;;;15.07;11.90;;;;;;;12.53;100.00;98809.22;5053350;28;20208;-65
2021/09/07 03:27:14;;;;;;;14.63;12.20;;;;;;;12.53;100.00;98805.72;5053131;28;20207;-65
2021/09/07 03:29:41;;;;;;;14.27;12.77;;;;;;;12.51;100.00;98804.97;5052670;28;20713;-65
2021/09/07 03:32:08;;;;;;;17.43;12.70;;;;;;;12.51;100.00;98802.31;5053239;28;20235;-65
2021/09/07 03:34:34;;;;;;;17.20;14.47;;;;;;;12.50;100.00;98797.97;5051494;28;20580;-64
2021/09/07 03:37:00;;;;;;;19.43;15.40;;;;;;;12.49;100.00;98790.97;5053205;28;20215;-65
2021/09/07 03:39:27;;;;;;;20.57;17.10;;;;;;;12.50;100.00;98792.66;5053299;28;20211;-64
2021/09/07 03:41:55;;;;;;;19.90;16.20;;;;;;;12.56;100.00;98786.94;5053421;28;20241;-65
2021/09/07 03:44:22;;;;;;;22.23;17.37;;;;;;;12.59;100.00;98786.75;5053080;28;20211;-65
2021/09/07 03:46:49;;;;;;;20.07;16.10;;;;;;;12.65;100.00;98791.66;5053072;28;20345;-64
2021/09/07 03:49:15;;;;;;;21.33;16.87;;;;;;;12.69;100.00;98793.13;5052750;28;20687;-64
2021/09/07 03:51:42;;;;;;;19.67;15.93;;;;;;;12.69;100.00;98796.66;5052933;28;20239;-64
2021/09/07 03:54:08;;;;;;;19.43;15.87;;;;;;;12.71;100.00;98785.94;5052784;28;20213;-65
2021/09/07 03:56:36;;;;;;;20.00;15.60;;;;;;;12.70;100.00;98795.69;5052986;28;20214;-65
2021/09/07 03:59:03;;;;;;;17.20;14.73;;;;;;;12.69;100.00;98794.00;5052768;28;20215;-65
2021/09/07 04:01:30;;;;;;;18.73;15.63;;;;;;;12.72;100.00;98803.53;5050921;28;20223;-65
2021/09/07 04:03:57;;;;;;;19.33;15.97;;;;;;;12.71;100.00;98802.69;5052947;28;20219;-65
2021/09/07 04:06:23;;;;;;;19.73;16.67;;;;;;;12.71;100.00;98804.50;5052952;28;20218;-65
2021/09/07 04:08:50;;;;;;;19.03;15.20;;;;;;;12.71;100.00;98799.19;5052736;28;20222;-65
2021/09/07 04:11:16;;;;;;;18.80;15.80;;;;;;;12.70;100.00;98795.69;5052868;28;20579;-65
2021/09/07 04:13:42;;;;;;;20.90;16.43;;;;;;;12.71;100.00;98799.19;5052869;28;20672;-65
2021/09/07 04:16:10;;;;;;;23.07;16.33;;;;;;;12.66;100.00;98799.47;5052840;28;20215;-65
2021/09/07 04:18:37;;;;;;;18.97;15.90;;;;;;;12.64;100.00;98797.88;5052643;28;20214;-65
2021/09/07 04:21:05;;;;;;;18.47;15.20;;;;;;;12.59;100.00;98792.91;5052842;28;20226;-64
2021/09/07 04:23:31;;;;;;;19.90;15.17;;;;;;;12.59;100.00;98794.72;5052662;28;20301;-65
2021/09/07 04:25:58;;;;;;;17.60;14.97;;;;;;;12.59;100.00;98802.66;5052272;28;20235;-65
2021/09/07 04:28:24;;;;;;;18.53;14.53;;;;;;;12.59;100.00;98806.16;5051558;28;20266;-64
2021/09/07 04:30:51;;;;;;;18.67;14.37;;;;;;;12.57;100.00;98800.13;5052519;28;20214;-65
2021/09/07 04:33:19;;;;;;;17.37;15.23;;;;;;;12.55;100.00;98801.16;5052297;28;20234;-64
2021/09/07 04:35:45;;;;;;;17.63;14.13;;;;;;;12.51;100.00;98802.31;5052405;28;20215;-64
2021/09/07 04:38:12;;;;;;;18.73;15.00;;;;;;;12.44;100.00;98804.53;5052510;28;20218;-64
2021/09/07 04:40:38;;;;;;;18.83;14.50;;;;;;;12.43;100.00;98801.97;5054391;28;20234;-65
2021/09/07 04:43:05;;;;;;;17.77;15.17;;;;;;;12.38;100.00;98804.06;5056130;28;20210;-65
2021/09/07 04:45:31;;;;;;;16.93;14.40;;;;;;;12.36;100.00;98798.03;5056280;28;20207;-64
2021/09/07 04:47:58;;;;;;;17.53;14.40;;;;;;;12.33;100.00;98800.88;5056263;28;20218;-64
2021/09/07 04:50:25;;;;;;;17.97;14.10;;;;;;;12.37;100.00;98800.59;5056256;28;20634;-65
2021/09/07 04:52:52;;;;;;;19.73;14.10;;;;;;;12.40;100.00;98808.31;5054209;28;20704;-65
2021/09/07 04:55:18;;;;;;;18.63;14.30;;;;;;;12.40;100.00;98805.69;5056175;28;20219;-65
2021/09/07 04:57:45;;;;;;;18.03;14.50;;;;;;;12.43;100.00;98812.56;5056166;28;20210;-65
2021/09/07 05:00:12;;;;;;;15.50;13.10;;;;;;;12.48;100.00;98811.31;5055917;28;20230;-65
2021/09/07 05:02:40;;;;;;;15.20;13.03;;;;;;;12.52;100.00;98811.97;5056167;28;20591;-65
2021/09/07 05:05:08;;;;;;;16.13;13.80;;;;;;;12.55;100.00;98817.06;5055867;28;20215;-65
2021/09/07 05:07:36;;;;;;;16.93;14.00;;;;;;;12.56;100.00;98811.69;5055725;28;20218;-65
2021/09/07 05:10:03;;;;;;;17.07;13.70;;;;;;;12.61;100.00;98808.72;5055843;28;20241;-65
2021/09/07 05:12:30;;;;;;;16.73;13.83;;;;;;;12.66;100.00;98815.41;5055498;28;20246;-65
2021/09/07 05:14:56;;;;;;;16.20;13.53;;;;;;;12.71;100.00;98815.13;5055881;28;20298;-65
2021/09/07 05:17:23;;;;;;;17.97;14.20;;;;;;;12.77;100.00;98812.88;5055568;28;20214;-65
2021/09/07 05:19:49;;;;;;;15.63;13.20;;;;;;;12.85;100.00;98812.38;5054204;28;20211;-64
2021/09/07 05:22:16;;;;;;;19.93;14.40;;;;;;;12.89;100.00;98822.66;5055427;28;20669;-65
2021/09/07 05:24:44;;;;;;;15.93;13.00;;;;;;;12.94;100.00;98823.22;5055811;28;20268;-65
2021/09/07 05:27:10;;;;;;;15.90;13.13;;;;;;;12.98;100.00;98821.22;5055650;28;20222;-64
2021/09/07 05:29:37;;;;;;;15.27;13.00;;;;;;;13.03;100.00;98827.09;5055505;28;20215;-64
2021/09/07 05:32:04;;;;;;;15.63;13.50;;;;;;;13.07;100.00;98828.59;5055354;28;20236;-63
2021/09/07 05:34:30;;;;;;;18.70;14.13;;;;;;;13.10;100.00;98825.72;5055373;28;20574;-63
2021/09/07 05:36:57;;;;;;;17.87;13.40;;;;;;;13.14;100.00;98828.03;5055371;28;20224;-65
2021/09/07 05:39:24;;;;;;;16.40;13.27;;;;;;;13.18;100.00;98828.66;5055300;28;20575;-65
2021/09/07 05:41:52;;;;;;;15.00;12.47;;;;;;;13.24;100.00;98838.88;5055414;28;20238;-65
2021/09/07 05:44:19;;;;;;;16.40;13.07;;;;;;;13.31;100.00;98840.16;5053215;28;20675;-64
2021/09/07 05:46:45;;;;;;;14.80;12.60;;;;;;;13.37;100.00;98845.03;5055202;28;20235;-65
2021/09/07 05:49:12;;;;;;;15.53;12.63;;;;;;;13.44;100.00;98838.38;5054994;28;20214;-64
2021/09/07 05:51:38;;;;;;;14.90;13.00;;;;;;;13.47;100.00;98844.31;5054709;28;20215;-64
2021/09/07 05:54:05;;;;;;;15.57;12.93;;;;;;;13.51;100.00;98847.59;5054733;28;20219;-64
2021/09/07 05:56:31;;;;;;;14.97;12.57;;;;;;;13.53;100.00;98851.84;5054922;28;20211;-64
2021/09/07 05:58:59;;;;;;;15.30;12.30;;;;;;;13.58;100.00;98848.88;5054767;28;20205;-65
2021/09/07 06:01:25;;;;;;;15.63;12.93;;;;;;;13.60;100.00;98846.94;5054865;28;20222;-65
2021/09/07 06:03:52;;;;;;;16.37;12.67;;;;;;;13.65;100.00;98844.81;5054864;28;20219;-65
2021/09/07 06:06:18;;;;;;;14.77;12.70;;;;;;;13.68;100.00;98849.94;5054864;28;20214;-65
2021/09/07 06:08:45;;;;;;;14.57;13.07;;;;;;;13.76;100.00;98859.03;5054770;28;20222;-65
2021/09/07 06:11:11;;;;;;;15.27;12.63;;;;;;;13.82;100.00;98855.13;5052982;28;20211;-64
2021/09/07 06:13:38;;;;;;;16.57;13.03;;;;;;;13.89;100.00;98853.72;5054341;28;20242;-65
2021/09/07 06:16:06;;;;;;;17.07;13.00;;;;;;;13.97;100.00;98856.66;5054344;28;20220;-65
2021/09/07 06:18:33;;;;;;;15.67;12.73;;;;;;;14.05;100.00;98859.66;5054564;28;20222;-64
2021/09/07 06:20:59;;;;;;;15.73;12.87;;;;;;;14.13;100.00;98859.94;5054160;28;20222;-65
2021/09/07 06:23:26;;;;;;;15.23;12.73;;;;;;;14.24;100.00;98860.06;5054588;28;20212;-65
2021/09/07 06:25:53;;;;;;;15.67;13.07;;;;;;;14.36;100.00;98854.69;5054240;28;20657;-65
2021/09/07 06:28:20;;;;;;;16.10;12.60;;;;;;;14.45;100.00;98847.84;5054145;28;20672;-65
2021/09/07 06:30:46;;;;;;;14.97;12.50;;;;;;;14.52;100.00;98855.25;5054031;28;20664;-65
2021/09/07 06:33:14;;;;;;;15.00;12.27;;;;;;;14.58;100.00;98861.94;5053955;28;20708;-64
2021/09/07 06:35:40;;;;;;;16.93;13.17;;;;;;;14.66;100.00;98854.25;5054197;28;20286;-65
2021/09/07 06:38:07;;;;;;;17.93;14.27;;;;;;;14.73;100.00;98858.16;5052489;28;20590;-65
2021/09/07 06:40:33;;;;;;;16.70;13.50;;;;;;;14.81;100.00;98861.09;5053942;28;20650;-65
2021/09/07 06:43:00;;;;;;;16.43;12.90;;;;;;;14.90;100.00;98860.41;5054109;28;20255;-65
2021/09/07 06:45:26;;;;;;;16.63;12.93;;;;;;;15.02;100.00;98856.81;5054004;28;20212;-65
2021/09/07 06:47:53;;;;;;;16.90;13.27;;;;;;;15.14;100.00;98859.38;5053689;28;20211;-65
2021/09/07 06:50:21;;;;;;;17.17;13.37;;;;;;;15.31;100.00;98855.44;5053938;28;20204;-65
2021/09/07 06:52:47;;;;;;;14.53;12.53;;;;;;;15.49;100.00;98862.03;5053773;28;20242;-64
2021/09/07 06:55:14;;;;;;;14.33;11.73;;;;;;;15.72;100.00;98861.97;5053430;28;20703;-65
2021/09/07 06:57:41;;;;;;;14.80;11.23;;;;;;;15.93;100.00;98854.06;5053517;28;20667;-65
2021/09/07 07:00:08;;;;;;;15.27;12.50;;;;;;;16.13;100.00;98860.38;5053722;28;20208;-65
2021/09/07 07:02:38;;;;;;;13.40;11.80;;;;;;;16.35;100.00;98867.50;5051118;28;20212;-64
2021/09/07 07:05:06;;;;;;;13.97;11.93;;;;;;;16.53;100.00;98864.19;5053792;28;20555;-64
2021/09/07 07:07:34;;;;;;;17.07;13.07;;;;;;;16.70;100.00;98869.00;5053288;28;20712;-64
2021/09/07 07:10:01;;;;;;;15.67;12.50;;;;;;;16.83;98.10;98871.53;5053209;28;20682;-64
2021/09/07 07:12:28;;;;;;;13.77;11.83;;;;;;;17.02;96.76;98869.84;5053400;28;20709;-64
2021/09/07 07:14:54;;;;;;;14.27;11.57;;;;;;;17.23;96.45;98877.88;5053540;28;20216;-64
2021/09/07 07:17:21;;;;;;;14.00;11.53;;;;;;;17.45;96.11;98878.69;5053512;28;20220;-64
2021/09/07 07:19:50;;;;;;;14.20;11.10;;;;;;;17.57;95.03;98877.63;5053400;28;20219;-65
2021/09/07 07:22:16;;;;;;;15.40;11.40;;;;;;;17.64;93.79;98878.78;5053413;28;20220;-65
2021/09/07 07:24:44;;;;;;;14.60;10.80;;;;;;;17.71;93.08;98877.28;5053066;28;20212;-65
2021/09/07 07:27:11;;;;;;;14.70;11.33;;;;;;;17.75;92.42;98884.03;5052966;28;20208;-65
2021/09/07 07:29:37;;;;;;;13.10;11.17;;;;;;;17.83;91.93;98878.91;5051540;28;20212;-64
2021/09/07 07:32:04;;;;;;;15.37;12.27;;;;;;;18.00;91.28;98880.94;5053271;28;20208;-64
2021/09/07 07:34:31;;;;;;;14.47;11.60;;;;;;;18.15;89.66;98890.28;5053086;28;20231;-64
2021/09/07 07:36:57;;;;;;;14.30;11.73;;;;;;;18.36;89.42;98885.75;5053136;28;20204;-64
2021/09/07 07:39:24;;;;;;;13.27;11.87;;;;;;;18.56;87.83;98878.63;5053090;28;20223;-64
2021/09/07 07:41:52;;;;;;;13.77;11.30;;;;;;;18.57;87.09;98891.88;5052772;28;20258;-64
2021/09/07 07:44:18;;;;;;;14.40;11.00;;;;;;;18.60;87.23;98901.47;5053018;28;20219;-64
2021/09/07 07:46:45;;;;;;;15.50;12.07;;;;;;;18.62;86.77;98895.00;5053045;28;20220;-65
2021/09/07 07:49:11;;;;;;;14.93;11.80;;;;;;;18.70;85.55;98897.81;5053073;28;20219;-65
2021/09/07 07:51:38;;;;;;;15.57;12.00;;;;;;;18.77;84.15;98896.28;5052811;28;20212;-65
2021/09/07 07:54:07;;;;;;;12.77;11.37;;;;;;;18.87;83.99;98893.63;5052267;28;20236;-64
2021/09/07 07:56:34;;;;;;;14.43;11.53;;;;;;;18.99;82.87;98884.47;5051813;28;20211;-64
2021/09/07 07:59:02;;;;;;;12.50;10.67;;;;;;;19.15;82.49;98887.44;5052675;28;20697;-63
2021/09/07 08:01:28;;;;;;;14.70;10.73;;;;;;;19.34;82.27;98882.97;5052697;28;20208;-63
2021/09/07 08:03:54;;;;;;;13.87;10.80;;;;;;;19.53;80.24;98888.28;5052928;28;20212;-62
2021/09/07 08:06:21;;;;;;;12.93;10.53;;;;;;;19.69;79.73;98890.38;5052900;28;20208;-63
2021/09/07 08:08:49;;;;;;;11.70;10.20;;;;;;;19.72;78.16;98893.63;5052821;28;20208;-63
2021/09/07 08:11:15;;;;;;;10.70;9.57;;;;;;;19.78;78.43;98895.72;5052976;28;20254;-63
2021/09/07 08:13:42;;;;;;;13.13;10.07;;;;;;;19.83;77.35;98896.16;5053187;28;20565;-63
2021/09/07 08:16:10;;;;;;;11.80;10.50;;;;;;;19.81;76.71;98903.47;5057032;28;20584;-63
2021/09/07 08:18:36;;;;;;;11.30;10.10;;;;;;;19.83;76.85;98901.50;5056668;28;20216;-64
2021/09/07 08:21:03;;;;;;;12.20;10.03;;;;;;;19.82;75.98;98897.09;5054874;28;20217;-64
2021/09/07 08:23:29;;;;;;;13.57;10.00;;;;;;;19.86;76.21;98895.84;5056690;28;20212;-64
2021/09/07 08:25:56;;;;;;;11.87;10.67;;;;;;;19.97;76.96;98897.50;5056372;28;20681;-64
2021/09/07 08:28:22;;;;;;;13.33;10.67;;;;;;;20.01;75.00;98889.03;5056647;28;20223;-64
2021/09/07 08:30:49;;;;;;;12.80;10.50;;;;;;;20.06;75.58;98886.75;5056731;28;20213;-64
2021/09/07 08:33:18;;;;;;;12.73;10.43;;;;;;;20.12;74.60;98888.03;5056208;28;20242;-64
2021/09/07 08:35:45;;;;;;;11.90;10.57;;;;;;;20.21;75.35;98890.66;5056552;28;20577;-64
2021/09/07 08:38:12;;;;;;;13.03;10.27;;;;;;;20.25;74.48;98886.69;5056560;28;20210;-64
2021/09/07 08:40:40;;;;;;;11.13;10.03;;;;;;;20.36;74.36;98888.34;5056369;28;20236;-64
2021/09/07 08:43:07;;;;;;;11.30;10.10;;;;;;;20.45;73.26;98882.94;5056355;28;20607;-64
2021/09/07 08:45:34;;;;;;;11.10;9.70;;;;;;;20.58;70.93;98894.16;5056286;28;20223;-64
2021/09/07 08:48:03;;;;;;;11.73;9.87;;;;;;;20.72;70.34;98890.97;5054724;28;20208;-64
2021/09/07 08:50:31;;;;;;;11.37;9.57;;;;;;;20.86;70.00;98893.13;5056103;28;20210;-64
2021/09/07 08:52:59;;;;;;;9.67;7.90;;;;;;;21.02;70.22;98898.69;5056013;28;20262;-64
2021/09/07 08:55:26;;;;;;;10.13;8.87;;;;;;;21.26;69.64;98898.94;5056066;28;20208;-64
2021/09/07 08:57:53;;;;;;;9.40;8.07;;;;;;;21.45;68.49;98900.63;5056332;28;20212;-64
2021/09/07 09:00:25;;;;;;;9.87;8.43;;;;;;;21.60;67.79;98908.00;5056210;28;20207;-64
2021/09/07 09:02:52;;;;;;;8.57;7.67;;;;;;;21.75;67.02;98908.31;5055947;28;20567;-64
2021/09/07 09:05:25;;;;;;;9.37;8.37;;;;;;;21.87;66.71;98915.09;5055729;28;20211;-64
2021/09/07 09:07:53;;;;;;;11.50;8.20;;;;;;;21.92;65.05;98910.94;5055978;28;20214;-64
2021/09/07 09:10:21;;;;;;;8.83;7.90;;;;;;;21.93;64.37;98915.31;5055890;28;20207;-64
2021/09/07 09:12:47;;;;;;;9.87;8.20;;;;;;;21.89;62.57;98913.94;5053834;28;20219;-63
2021/09/07 09:15:16;;;;;;;8.80;7.33;;;;;;;21.84;63.24;98905.50;5055688;28;20218;-64
2021/09/07 09:17:43;;;;;;;10.20;8.13;;;;;;;21.90;63.82;98910.28;5055707;28;20579;-64
2021/09/07 09:20:16;;;;;;;7.83;6.93;;;;;;;21.92;62.89;98910.94;5055719;28;20212;-64
2021/09/07 09:22:45;;;;;;;9.20;7.97;;;;;;;22.00;61.83;98908.31;5055484;28;20255;-65
2021/09/07 09:25:31;;;;;;;8.60;7.70;;;;;;;22.01;61.94;98904.59;5054900;28;20752;-64
2021/09/07 09:28:22;;;;;;;9.03;7.20;;;;;;;22.11;61.14;98908.03;5055177;28;20219;-64
2021/09/07 09:30:52;;;;;;;8.60;7.70;;;;;;;22.20;60.97;98904.38;5035495;28;20212;-64
2021/09/07 09:33:20;;;;;;;8.07;7.23;;;;;;;22.28;62.16;98901.75;5055369;28;20243;-64
2021/09/07 09:35:58;;;;;;;8.10;7.30;;;;;;;22.36;62.68;98904.47;5055251;28;20204;-64
2021/09/07 09:38:27;;;;;;;8.50;7.63;;;;;;;22.47;60.97;98906.06;5053460;28;20224;-64
2021/09/07 09:40:57;;;;;;;8.20;7.40;;;;;;;22.52;60.92;98909.97;5055471;28;20318;-64
2021/09/07 09:43:29;;;;;;;8.10;7.23;;;;;;;22.57;59.25;98902.25;5055036;28;20227;-64
2021/09/07 09:45:56;;;;;;;9.70;7.90;;;;;;;22.68;58.82;98901.09;5055308;28;20258;-64
2021/09/07 09:48:27;;;;;;;9.93;7.87;;;;;;;22.70;59.53;98899.94;5055118;28;20305;-64
2021/09/07 09:50:55;;;;;;;8.67;7.77;;;;;;;22.74;59.78;98903.97;5055164;28;20208;-64
2021/09/07 09:53:23;;;;;;;8.90;8.00;;;;;;;22.82;59.88;98895.94;5054970;28;20235;-64
2021/09/07 09:55:50;;;;;;;8.30;7.43;;;;;;;22.87;58.05;98893.56;5055051;28;20216;-64
2021/09/07 09:58:20;;;;;;;8.67;7.70;;;;;;;22.98;57.25;98904.03;5054946;28;20208;-64
2021/09/07 10:00:48;;;;;;;8.17;7.37;;;;;;;23.04;56.76;98898.00;5054648;28;20215;-64
2021/09/07 10:03:15;;;;;;;8.33;7.40;;;;;;;23.15;56.01;98891.44;5054539;28;20204;-64
2021/09/07 10:05:43;;;;;;;7.97;7.10;;;;;;;23.25;56.23;98893.03;5053137;28;20212;-64
2021/09/07 10:08:11;;;;;;;7.37;6.63;;;;;;;23.42;56.63;98900.09;5054485;28;20573;-65
2021/09/07 10:10:41;;;;;;;8.60;7.70;;;;;;;23.51;53.51;98890.16;5054767;28;20211;-64
2021/09/07 10:13:10;;;;;;;9.03;7.67;;;;;;;23.48;54.40;98898.59;5054301;28;20295;-64
2021/09/07 10:15:45;;;;;;;8.00;7.13;;;;;;;23.50;54.44;98901.97;5054622;28;20208;-64
2021/09/07 10:18:29;;;;;;;7.70;6.90;;;;;;;23.54;53.71;98898.75;5054263;28;20728;-64
2021/09/07 10:21:04;;;;;;;10.00;7.43;;;;;;;23.72;53.56;98894.03;5054585;28;20216;-65
2021/09/07 10:23:53;;;;;;;9.40;7.10;;;;;;;23.68;52.74;98881.03;5054574;28;20251;-64
2021/09/07 10:26:51;;;;;;;11.27;7.33;;;;;;;23.75;52.72;98882.91;5054508;28;20212;-64
2021/09/07 10:29:21;;;;;;;7.87;7.07;;;;;;;23.69;53.11;98888.13;5054025;28;20208;-64
2021/09/07 10:31:50;;;;;;;9.67;7.03;;;;;;;23.76;52.64;98881.88;5052326;28;20247;-64
2021/09/07 10:34:18;;;;;;;7.93;7.13;;;;;;;23.76;53.75;98870.22;5054239;28;20240;-64
2021/09/07 10:36:58;;;;;;;8.40;7.33;;;;;;;23.79;52.81;98878.84;5054265;28;20308;-64
2021/09/07 10:39:32;;;;;;;7.83;7.03;;;;;;;23.90;52.86;98874.97;5054233;28;20223;-64
2021/09/07 10:41:59;;;;;;;8.10;7.20;;;;;;;24.06;52.48;98872.22;5054456;28;20272;-65
2021/09/07 10:44:32;;;;;;;8.53;6.93;;;;;;;24.15;52.74;98866.63;5053881;28;20216;-65
2021/09/07 10:47:06;;;;;;;8.47;6.87;;;;;;;24.21;54.24;98871.34;5053751;28;20666;-65
2021/09/07 10:49:46;;;;;;;9.27;7.23;;;;;;;24.31;52.13;98866.59;5053732;28;20219;-65
2021/09/07 10:52:16;;;;;;;8.77;7.87;;;;;;;24.47;52.50;98854.88;5053982;28;20223;-64
2021/09/07 10:54:46;;;;;;;7.67;6.83;;;;;;;24.58;52.37;98852.66;5053494;28;20781;-65
2021/09/07 10:57:45;;;;;;;7.97;7.00;;;;;;;24.70;51.66;98856.63;5051833;28;20215;-64
2021/09/07 11:00:37;;;;;;;7.53;6.83;;;;;;;24.76;50.97;98847.00;5053513;28;20219;-64
2021/09/07 11:03:09;;;;;;;8.93;7.33;;;;;;;24.77;49.89;98845.97;5053329;28;20243;-65
2021/09/07 11:05:44;;;;;;;7.63;6.93;;;;;;;24.79;49.78;98842.06;5053498;28;20581;-64
2021/09/07 11:08:12;;;;;;;8.10;7.30;;;;;;;24.80;49.15;98840.22;5053486;28;20215;-64
2021/09/07 11:10:41;;;;;;;8.27;7.47;;;;;;;24.81;49.11;98837.31;5053683;28;20294;-65
2021/09/07 11:13:12;;;;;;;7.43;6.73;;;;;;;24.90;49.02;98830.84;5053337;28;20584;-64
2021/09/07 11:15:41;;;;;;;7.73;6.93;;;;;;;25.02;49.27;98834.81;5053607;28;20239;-64
2021/09/07 11:18:12;;;;;;;8.00;6.90;;;;;;;25.16;50.33;98831.34;5053471;28;20219;-64